sensor_id;sensor_type;location;lat;lon;timestamp;P1;durP1;ratioP1;P2;durP2;ratioP2
82511;SDS011;72152;65.012;25.464;2024-01-25T00:01:14;1.60;;;0.90;;
82511;SDS011;72152;65.012;25.464;2024-01-25T00:04:19;0.70;;;0.60;;
82511;SDS011;72152;65.012;25.464;2024-01-25T00:07:25;1.50;;;0.70;;
82511;SDS011;72152;65.012;25.464;2024-01-25T00:10:31;0.60;;;0.40;;
82511;SDS011;72152;65.012;25.464;2024-01-25T00:13:38;0.90;;;0.80;;
82511;SDS011;72152;65.012;25.464;2024-01-25T00:16:46;1.10;;;0.60;;
82511;SDS011;72152;65.012;25.464;2024-01-25T00:19:51;0.80;;;0.60;;
82511;SDS011;72152;65.012;25.464;2024-01-25T00:22:58;1.40;;;1.10;;
82511;SDS011;72152;65.012;25.464;2024-01-25T00:26:05;0.90;;;0.60;;
82511;SDS011;72152;65.012;25.464;2024-01-25T00:29:15;0.80;;;0.60;;
82511;SDS011;72152;65.012;25.464;2024-01-25T00:32:22;1.40;;;0.60;;
82511;SDS011;72152;65.012;25.464;2024-01-25T00:35:22;0.90;;;0.50;;
82511;SDS011;72152;65.012;25.464;2024-01-25T00:38:37;1.00;;;0.50;;
82511;SDS011;72152;65.012;25.464;2024-01-25T00:42:00;0.30;;;0.30;;
82511;SDS011;72152;65.012;25.464;2024-01-25T00:45:23;1.30;;;0.60;;
82511;SDS011;72152;65.012;25.464;2024-01-25T00:48:31;1.10;;;0.50;;
82511;SDS011;72152;65.012;25.464;2024-01-25T00:51:40;0.70;;;0.40;;
82511;SDS011;72152;65.012;25.464;2024-01-25T00:54:56;0.70;;;0.30;;
82511;SDS011;72152;65.012;25.464;2024-01-25T00:58:19;1.30;;;0.40;;
82511;SDS011;72152;65.012;25.464;2024-01-25T01:01:29;0.30;;;0.30;;
82511;SDS011;72152;65.012;25.464;2024-01-25T01:04:47;0.30;;;0.20;;
82511;SDS011;72152;65.012;25.464;2024-01-25T01:08:09;0.60;;;0.40;;
82511;SDS011;72152;65.012;25.464;2024-01-25T01:11:22;0.70;;;0.40;;
82511;SDS011;72152;65.012;25.464;2024-01-25T01:14:30;0.60;;;0.40;;
82511;SDS011;72152;65.012;25.464;2024-01-25T01:17:34;1.10;;;0.40;;
82511;SDS011;72152;65.012;25.464;2024-01-25T01:20:42;0.60;;;0.30;;
82511;SDS011;72152;65.012;25.464;2024-01-25T01:23:49;0.20;;;0.20;;
82511;SDS011;72152;65.012;25.464;2024-01-25T01:27:00;0.20;;;0.20;;
82511;SDS011;72152;65.012;25.464;2024-01-25T01:30:01;0.40;;;0.30;;
82511;SDS011;72152;65.012;25.464;2024-01-25T01:33:17;0.40;;;0.30;;
82511;SDS011;72152;65.012;25.464;2024-01-25T01:36:25;0.60;;;0.30;;
82511;SDS011;72152;65.012;25.464;2024-01-25T01:39:35;0.50;;;0.40;;
82511;SDS011;72152;65.012;25.464;2024-01-25T01:42:38;1.20;;;0.30;;
82511;SDS011;72152;65.012;25.464;2024-01-25T01:45:48;0.40;;;0.20;;
82511;SDS011;72152;65.012;25.464;2024-01-25T01:48:58;0.90;;;0.60;;
82511;SDS011;72152;65.012;25.464;2024-01-25T01:55:03;0.20;;;0.20;;
82511;SDS011;72152;65.012;25.464;2024-01-25T01:58:15;0.60;;;0.30;;
82511;SDS011;72152;65.012;25.464;2024-01-25T02:01:22;0.60;;;0.40;;
82511;SDS011;72152;65.012;25.464;2024-01-25T02:04:33;0.70;;;0.40;;
82511;SDS011;72152;65.012;25.464;2024-01-25T02:07:36;1.00;;;0.50;;
82511;SDS011;72152;65.012;25.464;2024-01-25T02:10:39;0.90;;;0.40;;
82511;SDS011;72152;65.012;25.464;2024-01-25T02:13:44;1.20;;;0.60;;
82511;SDS011;72152;65.012;25.464;2024-01-25T02:16:51;1.30;;;0.50;;
82511;SDS011;72152;65.012;25.464;2024-01-25T02:19:57;0.50;;;0.40;;
82511;SDS011;72152;65.012;25.464;2024-01-25T02:22:56;0.80;;;0.70;;
82511;SDS011;72152;65.012;25.464;2024-01-25T02:26:02;0.70;;;0.50;;
82511;SDS011;72152;65.012;25.464;2024-01-25T02:29:07;0.70;;;0.50;;
82511;SDS011;72152;65.012;25.464;2024-01-25T02:32:14;0.50;;;0.40;;
82511;SDS011;72152;65.012;25.464;2024-01-25T02:35:22;0.80;;;0.50;;
82511;SDS011;72152;65.012;25.464;2024-01-25T02:38:29;0.60;;;0.60;;
82511;SDS011;72152;65.012;25.464;2024-01-25T02:44:35;1.10;;;0.60;;
82511;SDS011;72152;65.012;25.464;2024-01-25T02:47:41;0.80;;;0.40;;
82511;SDS011;72152;65.012;25.464;2024-01-25T02:50:50;1.30;;;0.70;;
82511;SDS011;72152;65.012;25.464;2024-01-25T02:53:56;0.60;;;0.40;;
82511;SDS011;72152;65.012;25.464;2024-01-25T02:57:07;0.70;;;0.70;;
82511;SDS011;72152;65.012;25.464;2024-01-25T03:06:33;0.80;;;0.60;;
82511;SDS011;72152;65.012;25.464;2024-01-25T03:09:34;0.80;;;0.50;;
82511;SDS011;72152;65.012;25.464;2024-01-25T03:12:35;0.60;;;0.60;;
82511;SDS011;72152;65.012;25.464;2024-01-25T03:15:40;1.20;;;0.70;;
82511;SDS011;72152;65.012;25.464;2024-01-25T03:18:50;1.10;;;0.50;;
82511;SDS011;72152;65.012;25.464;2024-01-25T03:21:57;1.60;;;0.60;;
82511;SDS011;72152;65.012;25.464;2024-01-25T03:25:05;0.60;;;0.50;;
82511;SDS011;72152;65.012;25.464;2024-01-25T03:28:14;1.00;;;0.50;;
82511;SDS011;72152;65.012;25.464;2024-01-25T03:31:11;1.00;;;0.60;;
82511;SDS011;72152;65.012;25.464;2024-01-25T03:34:17;0.70;;;0.60;;
82511;SDS011;72152;65.012;25.464;2024-01-25T03:37:22;0.80;;;0.60;;
82511;SDS011;72152;65.012;25.464;2024-01-25T03:40:30;1.30;;;0.60;;
82511;SDS011;72152;65.012;25.464;2024-01-25T03:43:38;0.60;;;0.40;;
82511;SDS011;72152;65.012;25.464;2024-01-25T03:46:48;0.80;;;0.60;;
82511;SDS011;72152;65.012;25.464;2024-01-25T03:49:54;1.30;;;0.60;;
82511;SDS011;72152;65.012;25.464;2024-01-25T03:52:57;0.60;;;0.30;;
82511;SDS011;72152;65.012;25.464;2024-01-25T03:56:09;0.70;;;0.40;;
82511;SDS011;72152;65.012;25.464;2024-01-25T03:59:15;2.20;;;0.40;;
82511;SDS011;72152;65.012;25.464;2024-01-25T04:02:28;0.90;;;0.50;;
82511;SDS011;72152;65.012;25.464;2024-01-25T04:05:35;0.40;;;0.20;;
82511;SDS011;72152;65.012;25.464;2024-01-25T04:08:40;1.20;;;0.80;;
82511;SDS011;72152;65.012;25.464;2024-01-25T04:11:50;1.30;;;0.50;;
82511;SDS011;72152;65.012;25.464;2024-01-25T04:14:57;1.20;;;0.70;;
82511;SDS011;72152;65.012;25.464;2024-01-25T04:18:01;0.90;;;0.40;;
82511;SDS011;72152;65.012;25.464;2024-01-25T04:21:00;0.90;;;0.60;;
82511;SDS011;72152;65.012;25.464;2024-01-25T04:24:06;3.00;;;0.70;;
82511;SDS011;72152;65.012;25.464;2024-01-25T04:27:14;1.50;;;0.50;;
82511;SDS011;72152;65.012;25.464;2024-01-25T04:30:20;0.90;;;0.60;;
82511;SDS011;72152;65.012;25.464;2024-01-25T04:36:38;2.30;;;0.70;;
82511;SDS011;72152;65.012;25.464;2024-01-25T04:39:44;0.60;;;0.60;;
82511;SDS011;72152;65.012;25.464;2024-01-25T04:42:51;2.30;;;0.90;;
82511;SDS011;72152;65.012;25.464;2024-01-25T04:45:56;1.40;;;0.50;;
82511;SDS011;72152;65.012;25.464;2024-01-25T04:49:06;0.80;;;0.70;;
82511;SDS011;72152;65.012;25.464;2024-01-25T04:55:13;15.90;;;3.40;;
82511;SDS011;72152;65.012;25.464;2024-01-25T04:58:21;2.90;;;0.90;;
82511;SDS011;72152;65.012;25.464;2024-01-25T05:01:27;2.10;;;0.90;;
82511;SDS011;72152;65.012;25.464;2024-01-25T05:04:33;2.10;;;0.80;;
82511;SDS011;72152;65.012;25.464;2024-01-25T05:07:39;1.20;;;0.70;;
82511;SDS011;72152;65.012;25.464;2024-01-25T05:10:44;1.60;;;0.80;;
82511;SDS011;72152;65.012;25.464;2024-01-25T05:13:50;1.30;;;0.60;;
82511;SDS011;72152;65.012;25.464;2024-01-25T05:16:57;2.40;;;0.70;;
82511;SDS011;72152;65.012;25.464;2024-01-25T05:20:04;1.10;;;0.60;;
82511;SDS011;72152;65.012;25.464;2024-01-25T05:23:15;1.10;;;0.60;;
82511;SDS011;72152;65.012;25.464;2024-01-25T05:26:21;17.30;;;5.80;;
82511;SDS011;72152;65.012;25.464;2024-01-25T05:29:29;9.00;;;2.50;;
82511;SDS011;72152;65.012;25.464;2024-01-25T05:32:37;1.70;;;0.80;;
82511;SDS011;72152;65.012;25.464;2024-01-25T05:38:58;1.40;;;0.70;;
82511;SDS011;72152;65.012;25.464;2024-01-25T05:41:58;2.60;;;1.00;;
82511;SDS011;72152;65.012;25.464;2024-01-25T05:45:09;1.50;;;0.80;;
82511;SDS011;72152;65.012;25.464;2024-01-25T05:48:15;1.60;;;0.70;;
82511;SDS011;72152;65.012;25.464;2024-01-25T05:51:22;2.40;;;0.60;;
82511;SDS011;72152;65.012;25.464;2024-01-25T05:54:33;1.20;;;0.70;;
82511;SDS011;72152;65.012;25.464;2024-01-25T05:57:37;1.50;;;0.60;;
82511;SDS011;72152;65.012;25.464;2024-01-25T06:00:42;1.50;;;0.80;;
82511;SDS011;72152;65.012;25.464;2024-01-25T06:03:47;1.10;;;0.50;;
82511;SDS011;72152;65.012;25.464;2024-01-25T06:06:54;1.20;;;0.50;;
82511;SDS011;72152;65.012;25.464;2024-01-25T06:10:00;1.40;;;0.60;;
82511;SDS011;72152;65.012;25.464;2024-01-25T06:13:04;20.00;;;6.20;;
82511;SDS011;72152;65.012;25.464;2024-01-25T06:16:08;10.40;;;2.90;;
82511;SDS011;72152;65.012;25.464;2024-01-25T06:22:21;1.90;;;0.60;;
82511;SDS011;72152;65.012;25.464;2024-01-25T06:25:28;0.80;;;0.60;;
82511;SDS011;72152;65.012;25.464;2024-01-25T06:28:35;1.50;;;0.80;;
82511;SDS011;72152;65.012;25.464;2024-01-25T06:31:45;0.90;;;0.50;;
82511;SDS011;72152;65.012;25.464;2024-01-25T06:34:55;1.10;;;0.50;;
82511;SDS011;72152;65.012;25.464;2024-01-25T06:38:07;1.00;;;0.70;;
82511;SDS011;72152;65.012;25.464;2024-01-25T06:41:21;1.50;;;0.90;;
82511;SDS011;72152;65.012;25.464;2024-01-25T06:44:23;2.00;;;0.90;;
82511;SDS011;72152;65.012;25.464;2024-01-25T06:47:28;1.70;;;1.00;;
82511;SDS011;72152;65.012;25.464;2024-01-25T06:50:34;2.00;;;1.10;;
82511;SDS011;72152;65.012;25.464;2024-01-25T06:53:36;2.40;;;0.80;;
82511;SDS011;72152;65.012;25.464;2024-01-25T06:59:37;1.10;;;0.80;;
82511;SDS011;72152;65.012;25.464;2024-01-25T07:02:46;2.60;;;1.30;;
82511;SDS011;72152;65.012;25.464;2024-01-25T07:05:51;2.40;;;0.80;;
82511;SDS011;72152;65.012;25.464;2024-01-25T07:08:57;2.00;;;0.80;;
82511;SDS011;72152;65.012;25.464;2024-01-25T07:12:02;2.00;;;0.60;;
82511;SDS011;72152;65.012;25.464;2024-01-25T07:15:16;1.50;;;0.80;;
82511;SDS011;72152;65.012;25.464;2024-01-25T07:18:28;1.20;;;0.70;;
82511;SDS011;72152;65.012;25.464;2024-01-25T07:21:37;1.30;;;0.90;;
82511;SDS011;72152;65.012;25.464;2024-01-25T07:24:40;2.30;;;0.90;;
82511;SDS011;72152;65.012;25.464;2024-01-25T07:27:48;1.70;;;0.80;;
82511;SDS011;72152;65.012;25.464;2024-01-25T07:30:52;0.80;;;0.50;;
82511;SDS011;72152;65.012;25.464;2024-01-25T07:33:58;2.10;;;1.10;;
82511;SDS011;72152;65.012;25.464;2024-01-25T07:37:04;2.50;;;1.20;;
82511;SDS011;72152;65.012;25.464;2024-01-25T07:43:27;3.10;;;0.50;;
82511;SDS011;72152;65.012;25.464;2024-01-25T07:49:28;1.20;;;0.70;;
82511;SDS011;72152;65.012;25.464;2024-01-25T07:52:35;1.80;;;0.60;;
82511;SDS011;72152;65.012;25.464;2024-01-25T07:55:40;0.70;;;0.50;;
82511;SDS011;72152;65.012;25.464;2024-01-25T07:58:46;1.70;;;0.70;;
82511;SDS011;72152;65.012;25.464;2024-01-25T08:01:53;1.40;;;0.90;;
82511;SDS011;72152;65.012;25.464;2024-01-25T08:04:57;0.90;;;0.50;;
82511;SDS011;72152;65.012;25.464;2024-01-25T08:08:05;11.80;;;4.30;;
82511;SDS011;72152;65.012;25.464;2024-01-25T08:11:12;2.10;;;0.80;;
82511;SDS011;72152;65.012;25.464;2024-01-25T08:14:18;1.50;;;0.80;;
82511;SDS011;72152;65.012;25.464;2024-01-25T08:17:27;0.70;;;0.60;;
82511;SDS011;72152;65.012;25.464;2024-01-25T08:20:35;1.80;;;0.90;;
82511;SDS011;72152;65.012;25.464;2024-01-25T08:23:42;3.00;;;1.00;;
82511;SDS011;72152;65.012;25.464;2024-01-25T08:26:48;2.70;;;1.00;;
82511;SDS011;72152;65.012;25.464;2024-01-25T08:29:54;1.80;;;0.80;;
82511;SDS011;72152;65.012;25.464;2024-01-25T08:32:57;2.00;;;0.80;;
82511;SDS011;72152;65.012;25.464;2024-01-25T08:36:18;1.10;;;0.70;;
82511;SDS011;72152;65.012;25.464;2024-01-25T08:39:26;3.00;;;1.20;;
82511;SDS011;72152;65.012;25.464;2024-01-25T08:42:38;1.40;;;0.90;;
82511;SDS011;72152;65.012;25.464;2024-01-25T08:45:41;2.30;;;1.10;;
82511;SDS011;72152;65.012;25.464;2024-01-25T08:48:46;1.80;;;1.00;;
82511;SDS011;72152;65.012;25.464;2024-01-25T08:51:51;3.10;;;1.10;;
82511;SDS011;72152;65.012;25.464;2024-01-25T08:55:03;1.60;;;0.80;;
82511;SDS011;72152;65.012;25.464;2024-01-25T08:58:11;3.60;;;1.40;;
82511;SDS011;72152;65.012;25.464;2024-01-25T09:01:18;3.40;;;1.20;;
82511;SDS011;72152;65.012;25.464;2024-01-25T09:04:24;1.90;;;0.90;;
82511;SDS011;72152;65.012;25.464;2024-01-25T09:07:26;2.90;;;1.10;;
82511;SDS011;72152;65.012;25.464;2024-01-25T09:10:34;6.80;;;2.30;;
82511;SDS011;72152;65.012;25.464;2024-01-25T09:13:43;4.80;;;1.40;;
82511;SDS011;72152;65.012;25.464;2024-01-25T09:16:49;1.00;;;0.70;;
82511;SDS011;72152;65.012;25.464;2024-01-25T09:19:53;2.10;;;0.90;;
82511;SDS011;72152;65.012;25.464;2024-01-25T09:22:54;2.80;;;0.90;;
82511;SDS011;72152;65.012;25.464;2024-01-25T09:25:56;1.10;;;0.50;;
82511;SDS011;72152;65.012;25.464;2024-01-25T09:29:01;2.50;;;1.00;;
82511;SDS011;72152;65.012;25.464;2024-01-25T09:32:16;0.80;;;0.60;;
82511;SDS011;72152;65.012;25.464;2024-01-25T09:35:24;0.50;;;0.30;;
82511;SDS011;72152;65.012;25.464;2024-01-25T09:38:31;1.50;;;0.60;;
82511;SDS011;72152;65.012;25.464;2024-01-25T09:41:38;0.60;;;0.20;;
82511;SDS011;72152;65.012;25.464;2024-01-25T09:44:42;0.70;;;0.40;;
82511;SDS011;72152;65.012;25.464;2024-01-25T09:47:53;0.50;;;0.10;;
82511;SDS011;72152;65.012;25.464;2024-01-25T09:51:10;1.70;;;0.40;;
82511;SDS011;72152;65.012;25.464;2024-01-25T09:54:17;0.60;;;0.20;;
82511;SDS011;72152;65.012;25.464;2024-01-25T09:57:22;0.50;;;0.20;;
82511;SDS011;72152;65.012;25.464;2024-01-25T10:00:29;1.90;;;0.30;;
82511;SDS011;72152;65.012;25.464;2024-01-25T10:09:47;0.60;;;0.40;;
82511;SDS011;72152;65.012;25.464;2024-01-25T10:12:55;0.70;;;0.50;;
82511;SDS011;72152;65.012;25.464;2024-01-25T10:16:01;0.40;;;0.40;;
82511;SDS011;72152;65.012;25.464;2024-01-25T10:19:14;1.30;;;0.50;;
82511;SDS011;72152;65.012;25.464;2024-01-25T10:22:25;0.50;;;0.30;;
82511;SDS011;72152;65.012;25.464;2024-01-25T10:25:27;1.00;;;0.50;;
82511;SDS011;72152;65.012;25.464;2024-01-25T10:31:28;7.80;;;2.90;;
82511;SDS011;72152;65.012;25.464;2024-01-25T10:34:36;2.20;;;0.80;;
82511;SDS011;72152;65.012;25.464;2024-01-25T10:37:42;0.80;;;0.50;;
82511;SDS011;72152;65.012;25.464;2024-01-25T10:40:52;0.70;;;0.40;;
82511;SDS011;72152;65.012;25.464;2024-01-25T10:43:58;1.10;;;0.70;;
82511;SDS011;72152;65.012;25.464;2024-01-25T10:47:04;1.80;;;0.80;;
82511;SDS011;72152;65.012;25.464;2024-01-25T10:50:14;14.10;;;4.20;;
82511;SDS011;72152;65.012;25.464;2024-01-25T10:53:21;1.50;;;0.90;;
82511;SDS011;72152;65.012;25.464;2024-01-25T10:56:28;1.70;;;0.80;;
82511;SDS011;72152;65.012;25.464;2024-01-25T10:59:33;1.90;;;0.90;;
82511;SDS011;72152;65.012;25.464;2024-01-25T11:02:40;1.40;;;0.70;;
82511;SDS011;72152;65.012;25.464;2024-01-25T11:05:46;0.90;;;0.70;;
82511;SDS011;72152;65.012;25.464;2024-01-25T11:09:15;1.70;;;0.80;;
82511;SDS011;72152;65.012;25.464;2024-01-25T11:12:21;1.10;;;0.40;;
82511;SDS011;72152;65.012;25.464;2024-01-25T11:15:30;1.10;;;0.60;;
82511;SDS011;72152;65.012;25.464;2024-01-25T11:21:47;1.70;;;0.60;;
82511;SDS011;72152;65.012;25.464;2024-01-25T11:24:54;1.90;;;0.80;;
82511;SDS011;72152;65.012;25.464;2024-01-25T11:28:08;1.30;;;0.80;;
82511;SDS011;72152;65.012;25.464;2024-01-25T11:31:14;1.40;;;0.80;;
82511;SDS011;72152;65.012;25.464;2024-01-25T11:34:18;1.90;;;1.00;;
82511;SDS011;72152;65.012;25.464;2024-01-25T11:37:17;1.60;;;0.80;;
82511;SDS011;72152;65.012;25.464;2024-01-25T11:40:22;1.60;;;0.80;;
82511;SDS011;72152;65.012;25.464;2024-01-25T11:43:33;1.40;;;0.90;;
82511;SDS011;72152;65.012;25.464;2024-01-25T11:46:39;1.90;;;0.80;;
82511;SDS011;72152;65.012;25.464;2024-01-25T11:49:45;2.20;;;1.00;;
82511;SDS011;72152;65.012;25.464;2024-01-25T11:52:51;2.30;;;0.90;;
82511;SDS011;72152;65.012;25.464;2024-01-25T11:56:01;2.10;;;0.80;;
82511;SDS011;72152;65.012;25.464;2024-01-25T11:59:15;4.50;;;0.90;;
82511;SDS011;72152;65.012;25.464;2024-01-25T12:02:18;1.60;;;0.80;;
82511;SDS011;72152;65.012;25.464;2024-01-25T12:05:23;1.10;;;0.60;;
82511;SDS011;72152;65.012;25.464;2024-01-25T12:08:26;2.10;;;0.70;;
82511;SDS011;72152;65.012;25.464;2024-01-25T12:11:29;1.60;;;0.80;;
82511;SDS011;72152;65.012;25.464;2024-01-25T12:14:36;1.60;;;0.60;;
82511;SDS011;72152;65.012;25.464;2024-01-25T12:17:41;1.40;;;0.70;;
82511;SDS011;72152;65.012;25.464;2024-01-25T12:20:45;2.10;;;0.70;;
82511;SDS011;72152;65.012;25.464;2024-01-25T12:23:49;1.40;;;0.60;;
82511;SDS011;72152;65.012;25.464;2024-01-25T12:26:55;1.20;;;0.60;;
82511;SDS011;72152;65.012;25.464;2024-01-25T12:29:57;5.60;;;2.20;;
82511;SDS011;72152;65.012;25.464;2024-01-25T12:33:01;1.70;;;0.80;;
82511;SDS011;72152;65.012;25.464;2024-01-25T12:36:02;1.30;;;0.60;;
82511;SDS011;72152;65.012;25.464;2024-01-25T12:39:14;0.70;;;0.40;;
82511;SDS011;72152;65.012;25.464;2024-01-25T12:42:18;0.80;;;0.50;;
82511;SDS011;72152;65.012;25.464;2024-01-25T12:45:24;1.40;;;0.80;;
82511;SDS011;72152;65.012;25.464;2024-01-25T12:48:27;5.20;;;0.90;;
82511;SDS011;72152;65.012;25.464;2024-01-25T12:51:33;2.00;;;0.70;;
82511;SDS011;72152;65.012;25.464;2024-01-25T12:54:39;1.90;;;0.60;;
82511;SDS011;72152;65.012;25.464;2024-01-25T12:57:43;2.20;;;1.10;;
82511;SDS011;72152;65.012;25.464;2024-01-25T13:00:48;2.20;;;1.00;;
82511;SDS011;72152;65.012;25.464;2024-01-25T13:03:56;1.90;;;0.70;;
82511;SDS011;72152;65.012;25.464;2024-01-25T13:10:18;2.20;;;1.10;;
82511;SDS011;72152;65.012;25.464;2024-01-25T13:13:27;9.60;;;3.00;;
82511;SDS011;72152;65.012;25.464;2024-01-25T13:16:37;1.90;;;1.00;;
82511;SDS011;72152;65.012;25.464;2024-01-25T13:19:43;2.40;;;0.90;;
82511;SDS011;72152;65.012;25.464;2024-01-25T13:22:54;1.90;;;1.00;;
82511;SDS011;72152;65.012;25.464;2024-01-25T13:25:59;2.40;;;0.90;;
82511;SDS011;72152;65.012;25.464;2024-01-25T13:28:57;1.70;;;0.90;;
82511;SDS011;72152;65.012;25.464;2024-01-25T13:32:07;3.10;;;1.00;;
82511;SDS011;72152;65.012;25.464;2024-01-25T13:35:14;4.30;;;1.10;;
82511;SDS011;72152;65.012;25.464;2024-01-25T13:38:21;1.80;;;0.80;;
82511;SDS011;72152;65.012;25.464;2024-01-25T13:41:34;1.40;;;0.80;;
82511;SDS011;72152;65.012;25.464;2024-01-25T13:44:41;1.70;;;0.90;;
82511;SDS011;72152;65.012;25.464;2024-01-25T13:47:46;3.70;;;1.10;;
82511;SDS011;72152;65.012;25.464;2024-01-25T13:50:54;1.90;;;0.70;;
82511;SDS011;72152;65.012;25.464;2024-01-25T13:54:02;4.70;;;1.10;;
82511;SDS011;72152;65.012;25.464;2024-01-25T13:57:06;1.10;;;0.70;;
82511;SDS011;72152;65.012;25.464;2024-01-25T14:00:15;4.00;;;0.80;;
82511;SDS011;72152;65.012;25.464;2024-01-25T14:03:21;1.90;;;0.80;;
82511;SDS011;72152;65.012;25.464;2024-01-25T14:06:28;2.20;;;0.80;;
82511;SDS011;72152;65.012;25.464;2024-01-25T14:09:32;0.60;;;0.40;;
82511;SDS011;72152;65.012;25.464;2024-01-25T14:12:39;1.90;;;0.80;;
82511;SDS011;72152;65.012;25.464;2024-01-25T14:15:49;1.20;;;0.70;;
82511;SDS011;72152;65.012;25.464;2024-01-25T14:18:54;1.80;;;1.00;;
82511;SDS011;72152;65.012;25.464;2024-01-25T14:21:57;1.90;;;0.90;;
82511;SDS011;72152;65.012;25.464;2024-01-25T14:24:59;4.00;;;1.00;;
82511;SDS011;72152;65.012;25.464;2024-01-25T14:31:19;2.00;;;0.90;;
82511;SDS011;72152;65.012;25.464;2024-01-25T14:34:22;3.10;;;0.90;;
82511;SDS011;72152;65.012;25.464;2024-01-25T14:37:27;1.60;;;0.80;;
82511;SDS011;72152;65.012;25.464;2024-01-25T14:40:35;3.00;;;1.00;;
82511;SDS011;72152;65.012;25.464;2024-01-25T14:43:42;2.60;;;0.90;;
82511;SDS011;72152;65.012;25.464;2024-01-25T14:46:44;1.70;;;0.90;;
82511;SDS011;72152;65.012;25.464;2024-01-25T14:52:57;2.50;;;1.10;;
82511;SDS011;72152;65.012;25.464;2024-01-25T14:59:01;1.50;;;0.80;;
82511;SDS011;72152;65.012;25.464;2024-01-25T15:02:07;4.40;;;1.30;;
82511;SDS011;72152;65.012;25.464;2024-01-25T15:05:16;1.50;;;0.90;;
82511;SDS011;72152;65.012;25.464;2024-01-25T15:08:29;3.10;;;1.30;;
82511;SDS011;72152;65.012;25.464;2024-01-25T15:11:29;2.20;;;0.90;;
82511;SDS011;72152;65.012;25.464;2024-01-25T15:14:31;2.00;;;1.30;;
82511;SDS011;72152;65.012;25.464;2024-01-25T15:17:33;4.60;;;1.60;;
82511;SDS011;72152;65.012;25.464;2024-01-25T15:20:39;3.50;;;1.20;;
82511;SDS011;72152;65.012;25.464;2024-01-25T15:23:50;3.20;;;1.50;;
82511;SDS011;72152;65.012;25.464;2024-01-25T15:26:55;4.00;;;1.40;;
82511;SDS011;72152;65.012;25.464;2024-01-25T15:29:53;4.30;;;1.30;;
82511;SDS011;72152;65.012;25.464;2024-01-25T15:36:06;2.50;;;1.30;;
82511;SDS011;72152;65.012;25.464;2024-01-25T15:39:13;6.10;;;1.20;;
82511;SDS011;72152;65.012;25.464;2024-01-25T15:42:18;3.60;;;1.50;;
82511;SDS011;72152;65.012;25.464;2024-01-25T15:45:23;4.10;;;1.30;;
82511;SDS011;72152;65.012;25.464;2024-01-25T15:48:24;3.40;;;1.50;;
82511;SDS011;72152;65.012;25.464;2024-01-25T15:51:32;3.30;;;1.40;;
82511;SDS011;72152;65.012;25.464;2024-01-25T15:57:36;3.30;;;1.50;;
82511;SDS011;72152;65.012;25.464;2024-01-25T16:00:38;3.30;;;1.60;;
82511;SDS011;72152;65.012;25.464;2024-01-25T16:03:39;3.50;;;1.40;;
82511;SDS011;72152;65.012;25.464;2024-01-25T16:06:39;3.90;;;1.70;;
82511;SDS011;72152;65.012;25.464;2024-01-25T16:09:45;5.10;;;1.90;;
82511;SDS011;72152;65.012;25.464;2024-01-25T16:12:54;6.60;;;2.00;;
82511;SDS011;72152;65.012;25.464;2024-01-25T16:15:56;7.20;;;2.60;;
82511;SDS011;72152;65.012;25.464;2024-01-25T16:19:00;3.90;;;2.00;;
82511;SDS011;72152;65.012;25.464;2024-01-25T16:25:25;10.40;;;2.70;;
82511;SDS011;72152;65.012;25.464;2024-01-25T16:28:31;8.10;;;2.40;;
82511;SDS011;72152;65.012;25.464;2024-01-25T16:31:37;6.50;;;2.40;;
82511;SDS011;72152;65.012;25.464;2024-01-25T16:34:41;6.20;;;2.20;;
82511;SDS011;72152;65.012;25.464;2024-01-25T16:37:43;8.30;;;2.60;;
82511;SDS011;72152;65.012;25.464;2024-01-25T16:40:48;5.40;;;2.00;;
82511;SDS011;72152;65.012;25.464;2024-01-25T16:43:55;4.70;;;2.10;;
82511;SDS011;72152;65.012;25.464;2024-01-25T16:46:54;6.80;;;2.60;;
82511;SDS011;72152;65.012;25.464;2024-01-25T16:49:57;10.30;;;2.80;;
82511;SDS011;72152;65.012;25.464;2024-01-25T16:53:01;6.90;;;2.40;;
82511;SDS011;72152;65.012;25.464;2024-01-25T16:56:05;9.80;;;3.40;;
82511;SDS011;72152;65.012;25.464;2024-01-25T16:59:17;7.30;;;3.00;;
82511;SDS011;72152;65.012;25.464;2024-01-25T17:02:22;7.50;;;2.90;;
82511;SDS011;72152;65.012;25.464;2024-01-25T17:05:28;9.30;;;3.60;;
82511;SDS011;72152;65.012;25.464;2024-01-25T17:08:33;10.30;;;3.20;;
82511;SDS011;72152;65.012;25.464;2024-01-25T17:11:38;8.80;;;3.30;;
82511;SDS011;72152;65.012;25.464;2024-01-25T17:14:42;6.70;;;3.10;;
82511;SDS011;72152;65.012;25.464;2024-01-25T17:17:44;8.10;;;3.10;;
82511;SDS011;72152;65.012;25.464;2024-01-25T17:20:44;7.60;;;2.70;;
82511;SDS011;72152;65.012;25.464;2024-01-25T17:23:51;7.80;;;3.40;;
82511;SDS011;72152;65.012;25.464;2024-01-25T17:26:56;7.70;;;3.60;;
82511;SDS011;72152;65.012;25.464;2024-01-25T17:30:00;11.20;;;3.70;;
82511;SDS011;72152;65.012;25.464;2024-01-25T17:33:12;9.90;;;3.00;;
82511;SDS011;72152;65.012;25.464;2024-01-25T17:36:22;7.50;;;3.80;;
82511;SDS011;72152;65.012;25.464;2024-01-25T17:39:20;8.50;;;3.90;;
82511;SDS011;72152;65.012;25.464;2024-01-25T17:42:30;7.10;;;3.60;;
82511;SDS011;72152;65.012;25.464;2024-01-25T17:45:34;13.40;;;5.90;;
82511;SDS011;72152;65.012;25.464;2024-01-25T17:48:37;9.70;;;4.00;;
82511;SDS011;72152;65.012;25.464;2024-01-25T17:51:43;7.90;;;3.60;;
82511;SDS011;72152;65.012;25.464;2024-01-25T17:54:56;10.30;;;3.50;;
82511;SDS011;72152;65.012;25.464;2024-01-25T17:58:01;10.60;;;3.90;;
82511;SDS011;72152;65.012;25.464;2024-01-25T18:01:03;6.40;;;3.10;;
82511;SDS011;72152;65.012;25.464;2024-01-25T18:04:10;8.70;;;3.40;;
82511;SDS011;72152;65.012;25.464;2024-01-25T18:07:17;6.90;;;3.00;;
82511;SDS011;72152;65.012;25.464;2024-01-25T18:10:18;6.50;;;2.80;;
82511;SDS011;72152;65.012;25.464;2024-01-25T18:16:40;5.20;;;2.70;;
82511;SDS011;72152;65.012;25.464;2024-01-25T18:19:42;7.20;;;2.90;;
82511;SDS011;72152;65.012;25.464;2024-01-25T18:22:50;5.80;;;2.70;;
82511;SDS011;72152;65.012;25.464;2024-01-25T18:25:55;14.60;;;5.30;;
82511;SDS011;72152;65.012;25.464;2024-01-25T18:29:01;7.70;;;3.60;;
82511;SDS011;72152;65.012;25.464;2024-01-25T18:32:11;6.10;;;3.10;;
82511;SDS011;72152;65.012;25.464;2024-01-25T18:35:12;6.60;;;3.20;;
82511;SDS011;72152;65.012;25.464;2024-01-25T18:38:19;7.20;;;2.60;;
82511;SDS011;72152;65.012;25.464;2024-01-25T18:41:23;8.80;;;2.90;;
82511;SDS011;72152;65.012;25.464;2024-01-25T18:44:28;9.40;;;3.00;;
82511;SDS011;72152;65.012;25.464;2024-01-25T18:47:32;8.20;;;2.60;;
82511;SDS011;72152;65.012;25.464;2024-01-25T18:50:37;7.40;;;2.70;;
82511;SDS011;72152;65.012;25.464;2024-01-25T18:53:44;10.20;;;3.50;;
82511;SDS011;72152;65.012;25.464;2024-01-25T18:57:00;10.80;;;3.50;;
82511;SDS011;72152;65.012;25.464;2024-01-25T19:03:34;6.20;;;3.00;;
82511;SDS011;72152;65.012;25.464;2024-01-25T19:06:37;7.90;;;3.20;;
82511;SDS011;72152;65.012;25.464;2024-01-25T19:09:46;10.70;;;3.60;;
82511;SDS011;72152;65.012;25.464;2024-01-25T19:12:49;8.70;;;3.50;;
82511;SDS011;72152;65.012;25.464;2024-01-25T19:15:54;9.30;;;3.30;;
82511;SDS011;72152;65.012;25.464;2024-01-25T19:19:00;24.90;;;9.80;;
82511;SDS011;72152;65.012;25.464;2024-01-25T19:22:03;15.00;;;5.70;;
82511;SDS011;72152;65.012;25.464;2024-01-25T19:25:12;14.70;;;5.00;;
82511;SDS011;72152;65.012;25.464;2024-01-25T19:28:21;9.40;;;4.20;;
82511;SDS011;72152;65.012;25.464;2024-01-25T19:34:37;9.40;;;4.00;;
82511;SDS011;72152;65.012;25.464;2024-01-25T19:40:42;8.70;;;3.70;;
82511;SDS011;72152;65.012;25.464;2024-01-25T19:43:46;11.60;;;3.80;;
82511;SDS011;72152;65.012;25.464;2024-01-25T19:46:52;8.40;;;3.60;;